Time;durP1;ratioP1;P1;durP2;ratioP2;P2;SDS_P1;SDS_P2;PMS_P1;PMS_P2;Temp;Humidity;BMP_temperature;BMP_pressure;BME280_temperature;BME280_humidity;BME280_pressure;Samples;Min_cycle;Max_cycle;Signal;HPM_P1;HPM_P2
2023/01/24 00:01:41;;;;;;;13.90;10.38;;;4.50;99.90;;;;;;5076107;28;20090;-81
2023/01/24 00:04:07;;;;;;;15.52;10.43;;;4.50;99.90;;;;;;5075903;28;20361;-81
2023/01/24 00:06:33;;;;;;;13.48;10.35;;;4.50;99.90;;;;;;5075442;28;20043;-81
2023/01/24 00:08:59;;;;;;;14.23;10.90;;;4.50;99.90;;;;;;5075448;28;20492;-81
2023/01/24 00:11:24;;;;;;;15.73;10.75;;;4.40;99.90;;;;;;5075823;28;20044;-82
2023/01/24 00:13:50;;;;;;;14.32;10.38;;;4.40;99.90;;;;;;5075187;28;20037;-81
2023/01/24 00:16:20;;;;;;;18.00;10.77;;;4.40;99.90;;;;;;5075150;28;20473;-81
2023/01/24 00:18:47;;;;;;;15.23;9.90;;;4.40;99.90;;;;;;5075382;28;20503;-82
2023/01/24 00:21:16;;;;;;;17.85;12.10;;;4.40;99.90;;;;;;5075149;28;20059;-81
2023/01/24 00:23:44;;;;;;;17.85;10.93;;;4.40;99.90;;;;;;5075045;28;20110;-82
2023/01/24 00:26:12;;;;;;;15.77;11.30;;;4.40;99.90;;;;;;5075232;28;20040;-81
2023/01/24 00:28:38;;;;;;;15.60;11.10;;;4.30;99.90;;;;;;5076615;28;20032;-81
2023/01/24 00:31:04;;;;;;;18.45;12.73;;;4.30;99.90;;;;;;5076903;28;20045;-81
2023/01/24 00:33:30;;;;;;;16.75;11.48;;;4.20;99.90;;;;;;5078083;28;20032;-82
2023/01/24 00:35:56;;;;;;;15.90;11.32;;;4.20;99.90;;;;;;5079045;28;20040;-82
2023/01/24 00:38:22;;;;;;;18.60;12.07;;;4.20;99.90;;;;;;5074632;28;20051;-81
2023/01/24 00:40:48;;;;;;;18.65;12.25;;;4.20;99.90;;;;;;5096997;28;20040;-81
2023/01/24 00:43:14;;;;;;;18.60;11.90;;;4.20;99.90;;;;;;5098378;28;20078;-78
2023/01/24 00:45:40;;;;;;;16.95;13.00;;;4.10;99.90;;;;;;5092513;28;20052;-80
2023/01/24 00:48:08;;;;;;;19.20;12.05;;;4.10;99.90;;;;;;5076385;28;20109;-80
2023/01/24 00:50:34;;;;;;;17.50;10.23;;;4.30;99.90;;;;;;5074483;28;20047;-80
2023/01/24 00:53:00;;;;;;;20.75;13.10;;;4.30;99.90;;;;;;5074658;28;20036;-79
2023/01/24 00:55:27;;;;;;;19.63;12.30;;;4.30;99.90;;;;;;5074218;28;20130;-80
2023/01/24 00:57:53;;;;;;;18.23;13.50;;;4.40;99.90;;;;;;5073826;28;20043;-80
2023/01/24 01:00:19;;;;;;;18.27;12.18;;;4.30;99.90;;;;;;5073923;28;20048;-80
2023/01/24 01:02:45;;;;;;;18.75;13.05;;;4.30;99.90;;;;;;5073381;28;20036;-80
2023/01/24 01:05:10;;;;;;;20.17;12.70;;;4.10;99.90;;;;;;5073489;28;20094;-80
2023/01/24 01:07:36;;;;;;;15.60;10.23;;;4.00;99.90;;;;;;5073855;28;20131;-80
2023/01/24 01:10:03;;;;;;;18.58;12.25;;;4.00;99.90;;;;;;5073684;28;20044;-80
2023/01/24 01:12:28;;;;;;;18.00;11.52;;;4.10;99.90;;;;;;5073361;28;20044;-80
2023/01/24 01:14:54;;;;;;;16.95;11.73;;;4.10;99.90;;;;;;5055568;28;20040;-80
2023/01/24 01:17:20;;;;;;;19.70;12.88;;;4.20;99.90;;;;;;5073792;28;20102;-80
2023/01/24 01:19:45;;;;;;;17.33;11.80;;;4.20;99.90;;;;;;5072920;28;20047;-80
2023/01/24 01:22:11;;;;;;;24.30;14.52;;;4.40;99.90;;;;;;5073249;28;20131;-78
2023/01/24 01:24:37;;;;;;;20.02;13.80;;;4.30;99.90;;;;;;5073890;28;20032;-81
2023/01/24 01:27:03;;;;;;;18.20;11.57;;;4.30;99.90;;;;;;5073244;28;20104;-79
2023/01/24 01:29:28;;;;;;;18.08;13.38;;;4.30;99.90;;;;;;5073191;28;20040;-81
2023/01/24 01:31:54;;;;;;;18.73;12.88;;;4.30;99.90;;;;;;5055456;28;20087;-81
2023/01/24 01:34:20;;;;;;;19.70;11.27;;;4.30;99.90;;;;;;5073148;28;20189;-81
2023/01/24 01:36:45;;;;;;;21.65;13.38;;;4.40;99.90;;;;;;5072726;28;20040;-80
2023/01/24 01:39:11;;;;;;;25.30;14.60;;;4.40;99.90;;;;;;5073787;28;20041;-81
2023/01/24 01:41:37;;;;;;;16.50;12.00;;;4.40;99.90;;;;;;5073407;28;20535;-81
2023/01/24 01:44:40;;;;;;;22.23;13.35;;;4.50;99.90;;;;;;5073302;28;20473;-78
2023/01/24 01:47:28;;;;;;;16.42;11.27;;;4.50;99.90;;;;;;5074123;28;20051;-80
2023/01/24 01:50:34;;;;;;;19.45;14.45;;;4.50;99.90;;;;;;5072863;28;20045;-78
2023/01/24 01:52:59;;;;;;;18.50;12.13;;;4.50;99.90;;;;;;5054477;28;20052;-80
2023/01/24 01:55:31;;;;;;;21.23;13.82;;;4.40;99.90;;;;;;5055411;28;20083;-80
2023/01/24 01:57:58;;;;;;;22.83;13.68;;;4.30;99.90;;;;;;5038501;28;20449;-80
2023/01/24 02:00:25;;;;;;;18.88;12.18;;;4.30;99.90;;;;;;5072524;28;20450;-81
2023/01/24 02:05:51;;;;;;;17.83;11.52;;;4.30;99.90;;;;;;5072890;28;20091;-78
2023/01/24 02:08:21;;;;;;;16.50;12.45;;;4.30;99.90;;;;;;5038211;28;20048;-80
2023/01/24 02:13:35;;;;;;;18.77;13.27;;;4.40;99.90;;;;;;5055217;28;20472;-82
2023/01/24 02:16:03;;;;;;;21.95;12.95;;;4.40;99.90;;;;;;5054986;28;20487;-81
2023/01/24 02:18:30;;;;;;;17.30;11.75;;;4.50;99.90;;;;;;5055109;28;20037;-82
2023/01/24 02:20:56;;;;;;;19.80;12.80;;;4.50;99.90;;;;;;5073345;28;20040;-81
2023/01/24 02:23:52;;;;;;;18.83;13.77;;;4.60;99.90;;;;;;5055330;28;20074;-80
2023/01/24 02:26:21;;;;;;;22.48;13.45;;;4.40;99.90;;;;;;5073878;28;20105;-80
2023/01/24 02:28:55;;;;;;;17.15;12.52;;;4.30;99.90;;;;;;5073842;28;20063;-79
2023/01/24 02:31:21;;;;;;;18.95;12.93;;;4.30;99.90;;;;;;5074157;28;20377;-80
2023/01/24 02:33:47;;;;;;;20.25;14.48;;;4.30;99.90;;;;;;5073790;28;20105;-79
2023/01/24 02:36:23;;;;;;;15.43;12.13;;;4.30;99.90;;;;;;5073130;28;20560;-79
2023/01/24 02:39:11;;;;;;;19.25;11.88;;;4.20;99.90;;;;;;5073763;28;20167;-79
2023/01/24 02:42:08;;;;;;;20.58;13.45;;;4.20;99.90;;;;;;5073385;28;20055;-80
2023/01/24 02:44:48;;;;;;;20.67;13.98;;;4.20;99.90;;;;;;5071320;28;20048;-81
2023/01/24 02:47:14;;;;;;;26.42;16.52;;;4.20;99.90;;;;;;5073064;28;20040;-81
2023/01/24 02:49:39;;;;;;;22.45;14.30;;;4.10;99.90;;;;;;5072831;28;20591;-81
2023/01/24 02:54:52;;;;;;;20.08;13.65;;;4.00;99.90;;;;;;5058762;28;20346;-81
2023/01/24 03:00:06;;;;;;;20.08;14.45;;;4.00;99.90;;;;;;5076640;28;20095;-81
2023/01/24 03:02:32;;;;;;;19.90;14.25;;;3.90;99.90;;;;;;5076748;28;20037;-81
2023/01/24 03:04:58;;;;;;;18.63;13.45;;;3.90;99.90;;;;;;5075914;28;20052;-81
2023/01/24 03:07:23;;;;;;;19.70;14.35;;;3.90;99.90;;;;;;5042491;28;20044;-81
2023/01/24 03:09:49;;;;;;;26.38;15.25;;;3.80;99.90;;;;;;5076498;28;20127;-81
2023/01/24 03:34:31;;;;;;;17.35;13.55;;;3.90;99.90;;;;;;5075964;28;20094;-81
2023/01/24 03:36:57;;;;;;;20.20;13.20;;;3.90;99.90;;;;;;5076975;28;20036;-80
2023/01/24 03:42:07;;;;;;;19.80;13.10;;;3.90;99.90;;;;;;5076217;28;20093;-81
2023/01/24 03:44:33;;;;;;;21.00;14.07;;;3.90;99.90;;;;;;5076571;28;20040;-80
2023/01/24 03:46:58;;;;;;;19.40;14.18;;;3.90;99.90;;;;;;5075870;28;20036;-81
2023/01/24 03:52:26;;;;;;;17.88;11.95;;;3.90;99.90;;;;;;5075366;28;20135;-80
2023/01/24 03:54:52;;;;;;;14.68;11.35;;;4.00;99.90;;;;;;5075221;28;20060;-81
2023/01/24 03:57:18;;;;;;;16.02;10.38;;;3.90;99.90;;;;;;5075429;28;20496;-80
2023/01/24 03:59:43;;;;;;;14.77;11.27;;;4.00;99.90;;;;;;5075281;28;20047;-81
2023/01/24 04:02:09;;;;;;;13.93;11.15;;;4.00;99.90;;;;;;5040962;28;20040;-81
2023/01/24 04:07:19;;;;;;;18.73;12.40;;;4.50;99.90;;;;;;5058022;28;20407;-81
2023/01/24 04:09:44;;;;;;;17.58;12.43;;;3.90;99.90;;;;;;5075110;28;20044;-81
2023/01/24 04:12:10;;;;;;;14.55;11.90;;;3.90;99.90;;;;;;5057884;28;20076;-81
2023/01/24 04:14:36;;;;;;;16.52;11.98;;;3.90;99.90;;;;;;5075044;28;20032;-81
2023/01/24 04:17:01;;;;;;;16.50;11.05;;;3.80;99.90;;;;;;5075005;28;20047;-79
2023/01/24 04:19:27;;;;;;;15.20;12.00;;;3.90;99.90;;;;;;5056857;28;20079;-81
2023/01/24 04:21:53;;;;;;;16.40;11.35;;;3.90;99.90;;;;;;5074727;28;20127;-81
2023/01/24 04:24:19;;;;;;;17.02;11.85;;;4.00;99.90;;;;;;5074805;28;20045;-81
2023/01/24 04:26:44;;;;;;;14.75;11.02;;;4.10;99.90;;;;;;5074383;28;20048;-81
2023/01/24 04:29:10;;;;;;;15.85;11.55;;;3.90;99.90;;;;;;5075245;28;20457;-81
2023/01/24 04:31:35;;;;;;;17.65;12.25;;;3.90;99.90;;;;;;5074930;28;20063;-81
2023/01/24 04:34:01;;;;;;;16.63;11.73;;;3.90;99.90;;;;;;5074678;28;20032;-79
2023/01/24 04:36:27;;;;;;;16.80;10.80;;;3.90;99.90;;;;;;5074327;28;20047;-81
2023/01/24 04:38:55;;;;;;;16.05;11.48;;;3.90;99.90;;;;;;5074931;28;20041;-81
2023/01/24 04:41:20;;;;;;;16.48;11.95;;;4.10;99.90;;;;;;5075040;28;20048;-81
2023/01/24 04:43:46;;;;;;;16.38;11.85;;;3.90;99.90;;;;;;5074059;28;20036;-81
2023/01/24 04:46:12;;;;;;;16.30;11.63;;;3.90;99.90;;;;;;5074377;28;20115;-81
2023/01/24 04:48:38;;;;;;;16.60;11.60;;;3.90;99.90;;;;;;5074459;28;20044;-81
2023/01/24 04:51:04;;;;;;;17.45;12.55;;;3.90;99.90;;;;;;5074587;28;20046;-81
2023/01/24 04:53:30;;;;;;;16.23;11.38;;;3.90;99.90;;;;;;5074323;28;20521;-81
2023/01/24 04:56:01;;;;;;;19.70;12.82;;;3.90;99.90;;;;;;5074254;28;20044;-81
2023/01/24 04:58:26;;;;;;;17.88;12.00;;;3.90;99.90;;;;;;5074455;28;20090;-82
2023/01/24 05:00:53;;;;;;;18.08;12.77;;;3.90;99.90;;;;;;5057103;28;20036;-81
2023/01/24 05:03:18;;;;;;;23.30;13.23;;;3.90;99.90;;;;;;5074487;28;20504;-81
2023/01/24 05:05:49;;;;;;;17.33;12.75;;;3.90;99.90;;;;;;5074005;28;20084;-81
2023/01/24 05:08:14;;;;;;;18.95;13.38;;;3.90;99.90;;;;;;5074243;28;20052;-81
2023/01/24 05:10:40;;;;;;;19.85;13.60;;;3.90;99.90;;;;;;5073910;28;20082;-81
2023/01/24 05:13:05;;;;;;;16.83;12.55;;;3.90;99.90;;;;;;5074133;28;20083;-82
2023/01/24 05:15:31;;;;;;;17.23;12.45;;;3.90;99.90;;;;;;5073657;28;20051;-81
2023/01/24 05:17:57;;;;;;;20.15;12.88;;;3.80;99.90;;;;;;5074331;28;20041;-82
2023/01/24 05:20:22;;;;;;;18.65;12.23;;;3.80;99.90;;;;;;5073298;28;20350;-81
2023/01/24 05:22:49;;;;;;;19.38;12.20;;;3.80;99.90;;;;;;5073554;28;20056;-81
2023/01/24 05:25:18;;;;;;;16.33;12.80;;;3.80;99.90;;;;;;5056107;28;20390;-81
2023/01/24 05:27:44;;;;;;;17.48;12.82;;;3.90;99.90;;;;;;5073922;28;20500;-81
2023/01/24 05:30:10;;;;;;;18.83;12.10;;;3.90;99.90;;;;;;5073620;28;20040;-81
2023/01/24 05:32:37;;;;;;;18.65;12.20;;;3.90;99.90;;;;;;5074489;28;20036;-81
2023/01/24 05:35:04;;;;;;;14.57;11.15;;;4.10;99.90;;;;;;5073767;28;20045;-82
2023/01/24 05:37:29;;;;;;;16.48;12.63;;;3.80;99.90;;;;;;5073549;28;20040;-81
2023/01/24 05:39:55;;;;;;;22.10;13.23;;;3.90;99.90;;;;;;5073785;28;20044;-81
2023/01/24 05:42:21;;;;;;;16.77;11.75;;;3.90;99.90;;;;;;5073744;28;20040;-81
2023/01/24 05:44:46;;;;;;;16.63;13.57;;;3.90;99.90;;;;;;5073687;28;20127;-82
2023/01/24 05:47:12;;;;;;;20.00;13.85;;;3.80;99.90;;;;;;5056123;28;20083;-81
2023/01/24 05:49:38;;;;;;;19.00;12.52;;;3.80;99.90;;;;;;5055552;28;20036;-81
2023/01/24 05:52:03;;;;;;;18.45;12.02;;;3.80;99.90;;;;;;5073649;28;20044;-81
2023/01/24 05:54:29;;;;;;;16.45;12.93;;;3.80;99.90;;;;;;5073257;28;20054;-81
2023/01/24 05:56:55;;;;;;;16.63;12.93;;;3.80;99.90;;;;;;5055847;28;20210;-82
2023/01/24 05:59:20;;;;;;;15.55;11.88;;;3.70;99.90;;;;;;5073313;28;20131;-81
2023/01/24 06:01:46;;;;;;;14.00;10.45;;;3.70;99.90;;;;;;5073353;28;20045;-81
2023/01/24 06:04:12;;;;;;;16.08;11.18;;;3.70;99.90;;;;;;5055613;28;20044;-81
2023/01/24 06:06:38;;;;;;;14.18;9.70;;;3.70;99.90;;;;;;5073825;28;20084;-82
2023/01/24 06:09:03;;;;;;;19.45;11.20;;;3.70;99.90;;;;;;5073897;28;20086;-81
2023/01/24 06:11:29;;;;;;;16.80;11.90;;;3.70;99.90;;;;;;5073517;28;20047;-82
2023/01/24 06:13:56;;;;;;;15.55;11.00;;;3.60;99.90;;;;;;5073307;28;20080;-81
2023/01/24 06:16:23;;;;;;;13.27;10.18;;;4.00;99.90;;;;;;5073293;28;20129;-81
2023/01/24 06:18:50;;;;;;;18.02;11.98;;;3.70;99.90;;;;;;5072802;28;20047;-80
2023/01/24 06:21:37;;;;;;;16.67;10.93;;;3.70;99.90;;;;;;5073054;28;20040;-81
2023/01/24 06:24:04;;;;;;;13.85;10.13;;;3.70;99.90;;;;;;5073181;28;20044;-81
2023/01/24 06:26:31;;;;;;;15.77;9.95;;;3.70;99.90;;;;;;5074002;28;20055;-81
2023/01/24 06:28:57;;;;;;;12.27;10.45;;;3.70;99.90;;;;;;5059262;28;20046;-82
2023/01/24 06:31:40;;;;;;;14.35;10.45;;;3.70;99.90;;;;;;5077041;28;20044;-80
2023/01/24 06:34:21;;;;;;;15.87;10.87;;;3.70;99.90;;;;;;5077324;28;20043;-82
2023/01/24 06:37:04;;;;;;;14.63;11.15;;;3.80;99.90;;;;;;5077510;28;20051;-81
2023/01/24 06:39:30;;;;;;;;;;;3.70;99.90;;;;;;5059480;28;20053;-81
2023/01/24 06:41:56;;;;;;;16.23;10.13;;;3.60;99.90;;;;;;5076491;28;19916;-78
2023/01/24 06:44:22;;;;;;;15.35;10.55;;;3.60;99.90;;;;;;5077060;28;20044;-79
2023/01/24 06:46:48;;;;;;;14.70;10.15;;;3.60;99.90;;;;;;5076716;28;20166;-80
2023/01/24 06:49:14;;;;;;;13.82;10.20;;;3.60;99.90;;;;;;5076246;28;20075;-80
2023/01/24 06:51:40;;;;;;;13.18;9.65;;;3.60;99.90;;;;;;5077502;28;20478;-81
2023/01/24 06:54:05;;;;;;;13.02;9.25;;;3.60;99.90;;;;;;5077515;28;20052;-81
2023/01/24 06:56:31;;;;;;;14.80;9.35;;;3.90;99.90;;;;;;5058977;28;20044;-82
2023/01/24 06:58:57;;;;;;;15.40;10.10;;;3.70;99.90;;;;;;5076690;28;20036;-81
2023/01/24 07:01:23;;;;;;;13.30;10.00;;;3.60;99.90;;;;;;5076452;28;20044;-81
2023/01/24 07:03:48;;;;;;;13.82;9.00;;;3.60;99.90;;;;;;5075988;28;20036;-81
2023/01/24 07:06:15;;;;;;;15.68;9.95;;;3.50;99.90;;;;;;5076902;28;20067;-81
2023/01/24 07:08:41;;;;;;;13.27;10.20;;;3.60;99.90;;;;;;5076397;28;20102;-81
2023/01/24 07:11:07;;;;;;;14.57;9.57;;;3.60;99.90;;;;;;5058329;28;20101;-80
2023/01/24 07:13:32;;;;;;;14.20;10.32;;;3.50;99.90;;;;;;5076585;28;20037;-81
2023/01/24 07:16:01;;;;;;;13.73;9.80;;;3.50;99.90;;;;;;5077285;28;20047;-80
2023/01/24 07:18:27;;;;;;;16.75;10.95;;;3.50;99.90;;;;;;5077259;28;20523;-81
2023/01/24 07:20:53;;;;;;;15.95;10.07;;;3.50;99.90;;;;;;5077449;28;20044;-80
2023/01/24 07:23:23;;;;;;;16.08;11.43;;;3.60;99.90;;;;;;5060638;28;20040;-81
2023/01/24 07:25:50;;;;;;;15.65;11.93;;;3.60;99.90;;;;;;5059623;28;20036;-81
2023/01/24 07:28:16;;;;;;;16.10;10.77;;;3.60;99.90;;;;;;5076643;28;20040;-82
2023/01/24 07:30:44;;;;;;;18.52;12.10;;;3.60;99.90;;;;;;5076865;28;20044;-79
2023/01/24 07:33:11;;;;;;;13.70;9.98;;;3.60;99.90;;;;;;5076007;28;20040;-79
2023/01/24 07:35:37;;;;;;;16.00;11.07;;;3.60;99.90;;;;;;5075962;28;20051;-79
2023/01/24 07:38:03;;;;;;;14.23;10.00;;;3.50;99.90;;;;;;5057099;28;20381;-80
2023/01/24 07:40:28;;;;;;;22.10;11.45;;;3.60;99.90;;;;;;5058250;28;20044;-79
2023/01/24 07:42:54;;;;;;;13.32;10.13;;;3.60;99.90;;;;;;5075909;28;20131;-78
2023/01/24 07:45:20;;;;;;;18.23;10.98;;;3.60;99.90;;;;;;5075554;28;20044;-80
2023/01/24 07:47:46;;;;;;;14.57;9.80;;;3.60;99.90;;;;;;5076365;28;20123;-82
2023/01/24 07:50:11;;;;;;;16.48;10.35;;;3.60;99.90;;;;;;5075268;28;20095;-80
2023/01/24 07:52:37;;;;;;;14.80;9.73;;;3.60;99.90;;;;;;5075776;28;20041;-82
2023/01/24 07:55:03;;;;;;;14.65;10.13;;;3.60;99.90;;;;;;5075355;28;20128;-83
2023/01/24 07:57:28;;;;;;;13.70;9.90;;;3.70;99.90;;;;;;5075686;28;20373;-82
2023/01/24 07:59:54;;;;;;;14.05;9.35;;;4.20;99.90;;;;;;5075640;28;20048;-71
2023/01/24 08:02:20;;;;;;;15.73;10.38;;;3.70;99.90;;;;;;5074931;28;20140;-74
2023/01/24 08:04:45;;;;;;;14.30;10.07;;;3.70;99.90;;;;;;5074109;28;20036;-85
2023/01/24 08:07:17;;;;;;;17.55;12.32;;;3.70;99.90;;;;;;5056944;28;20047;-78
2023/01/24 08:09:44;;;;;;;15.57;11.13;;;3.60;99.90;;;;;;5057545;28;20493;-80
2023/01/24 08:12:09;;;;;;;14.45;10.90;;;3.70;99.90;;;;;;5075321;28;20036;-82
2023/01/24 08:14:35;;;;;;;16.63;12.10;;;3.60;99.90;;;;;;5075814;28;20189;-70
2023/01/24 08:17:01;;;;;;;15.75;11.63;;;3.80;99.90;;;;;;5075639;28;20044;-67
2023/01/24 08:19:26;;;;;;;18.52;12.15;;;3.60;99.90;;;;;;5075661;28;20123;-67
2023/01/24 08:21:52;;;;;;;15.00;11.70;;;3.60;99.90;;;;;;5075891;28;20032;-70
2023/01/24 08:24:18;;;;;;;16.67;11.30;;;3.60;99.90;;;;;;5073983;28;20041;-67
2023/01/24 08:26:46;;;;;;;17.55;12.80;;;4.00;99.90;;;;;;5073659;28;20096;-67
2023/01/24 08:29:12;;;;;;;16.77;11.52;;;2.70;99.90;;;;;;5073541;28;20117;-68
2023/01/24 08:31:38;;;;;;;13.55;11.18;;;3.80;99.90;;;;;;5074011;28;20114;-79
2023/01/24 08:34:04;;;;;;;17.60;12.38;;;3.60;99.90;;;;;;5073623;28;20037;-71
2023/01/24 08:36:29;;;;;;;15.27;11.52;;;3.70;99.90;;;;;;5073423;28;20052;-79
2023/01/24 08:38:55;;;;;;;20.15;12.13;;;3.70;99.90;;;;;;5073426;28;20047;-75
2023/01/24 08:41:21;;;;;;;19.00;12.15;;;3.70;99.90;;;;;;5073372;28;20507;-79
2023/01/24 08:43:46;;;;;;;18.95;13.55;;;3.70;99.90;;;;;;5073119;28;20438;-77
2023/01/24 08:46:12;;;;;;;17.70;12.85;;;3.70;99.90;;;;;;5073275;28;20093;-77
2023/01/24 08:48:38;;;;;;;16.60;12.90;;;3.70;99.90;;;;;;5072857;28;20040;-80
2023/01/24 08:51:04;;;;;;;23.05;14.20;;;4.10;99.90;;;;;;5054985;28;20097;-80
2023/01/24 08:53:30;;;;;;;21.38;13.73;;;3.70;99.90;;;;;;5072826;28;20054;-74
2023/01/24 08:55:56;;;;;;;17.35;12.55;;;3.90;99.90;;;;;;5073126;28;20052;-74
2023/01/24 08:58:22;;;;;;;19.00;13.82;;;3.60;99.90;;;;;;5073931;28;20063;-76
2023/01/24 09:00:47;;;;;;;19.90;15.20;;;3.60;99.90;;;;;;5074821;28;20455;-76
2023/01/24 09:03:16;;;;;;;22.95;16.70;;;3.70;99.90;;;;;;5040111;28;20373;-76
2023/01/24 09:05:42;;;;;;;19.30;14.13;;;3.60;99.90;;;;;;5073189;28;20052;-73
2023/01/24 09:08:09;;;;;;;16.63;13.43;;;3.70;99.90;;;;;;5072331;28;20430;-75
2023/01/24 09:10:35;;;;;;;19.13;14.38;;;3.70;99.90;;;;;;5072849;28;20052;-72
2023/01/24 09:13:04;;;;;;;34.10;16.17;;;3.70;99.90;;;;;;5072807;28;20038;-72
2023/01/24 09:15:30;;;;;;;20.83;14.93;;;3.80;99.90;;;;;;5072774;28;20374;-74
2023/01/24 09:17:59;;;;;;;20.45;13.48;;;3.70;99.90;;;;;;5073004;28;20087;-72
2023/01/24 09:20:25;;;;;;;17.25;12.82;;;3.70;99.90;;;;;;5075404;28;20048;-79
2023/01/24 09:22:50;;;;;;;21.00;15.02;;;3.70;99.90;;;;;;5076177;28;20086;-73
2023/01/24 09:25:16;;;;;;;17.52;12.70;;;3.70;99.90;;;;;;5057141;28;20127;-75
2023/01/24 09:27:42;;;;;;;18.35;13.38;;;3.60;99.90;;;;;;5055954;28;20056;-75
2023/01/24 09:30:09;;;;;;;18.00;15.38;;;3.60;99.90;;;;;;5073871;28;20089;-78
2023/01/24 09:32:35;;;;;;;18.45;13.63;;;3.60;99.90;;;;;;5072576;28;20129;-73
2023/01/24 09:35:01;;;;;;;18.10;13.90;;;3.60;99.90;;;;;;5072554;28;20048;-76
2023/01/24 09:37:27;;;;;;;19.45;13.90;;;3.60;99.90;;;;;;5072614;28;20044;-73
2023/01/24 09:39:55;;;;;;;24.55;14.60;;;4.00;99.90;;;;;;5072976;28;20134;-78
2023/01/24 09:42:41;;;;;;;20.25;13.93;;;3.60;99.90;;;;;;5072577;28;20497;-80
2023/01/24 09:45:06;;;;;;;19.55;14.68;;;3.70;99.90;;;;;;5072235;28;20108;-76
2023/01/24 09:47:44;;;;;;;18.80;12.98;;;3.70;99.90;;;;;;5072399;28;20323;-77
2023/01/24 09:50:25;;;;;;;19.80;14.25;;;3.80;99.90;;;;;;5072930;28;20137;-69
2023/01/24 09:52:56;;;;;;;17.77;13.32;;;3.70;99.90;;;;;;5072042;28;20441;-70
2023/01/24 09:55:25;;;;;;;19.35;13.90;;;3.80;99.90;;;;;;5072011;28;20611;-69
2023/01/24 09:58:00;;;;;;;22.08;13.80;;;3.80;99.90;;;;;;5072618;28;20456;-69
2023/01/24 10:00:37;;;;;;;19.88;12.63;;;3.70;99.90;;;;;;5054914;28;20054;-69
2023/01/24 10:03:13;;;;;;;18.58;13.25;;;3.70;99.90;;;;;;5072498;28;20033;-76
2023/01/24 10:05:42;;;;;;;16.35;12.40;;;3.70;99.90;;;;;;5072212;28;20047;-72
2023/01/24 10:08:31;;;;;;;19.60;12.85;;;3.70;99.90;;;;;;5072215;28;20040;-77
2023/01/24 10:11:25;;;;;;;16.95;12.73;;;3.70;99.90;;;;;;5056579;28;20071;-75
2023/01/24 10:14:22;;;;;;;19.38;13.27;;;3.80;99.90;;;;;;5072545;28;20115;-77
2023/01/24 10:17:16;;;;;;;15.20;11.65;;;3.80;99.90;;;;;;5072686;28;20090;-74
2023/01/24 10:20:29;;;;;;;14.50;10.80;;;3.80;99.90;;;;;;5072001;28;20037;-71
2023/01/24 10:23:04;;;;;;;13.63;10.68;;;3.80;99.90;;;;;;5071798;28;20040;-74
2023/01/24 10:25:54;;;;;;;14.15;10.52;;;3.80;99.90;;;;;;5071604;28;20485;-76
2023/01/24 10:28:38;;;;;;;19.27;12.05;;;3.90;99.90;;;;;;5071999;28;20048;-79
2023/01/24 10:31:25;;;;;;;14.80;10.90;;;3.90;99.90;;;;;;5072042;28;20523;-71
2023/01/24 10:34:20;;;;;;;19.25;12.10;;;4.00;99.90;;;;;;5071928;28;20040;-70
2023/01/24 10:37:14;;;;;;;14.68;11.55;;;3.90;99.90;;;;;;5060978;28;20353;-78
2023/01/24 10:39:40;;;;;;;16.92;12.48;;;3.90;99.90;;;;;;5054420;28;20437;-72
2023/01/24 10:42:28;;;;;;;17.05;12.32;;;3.90;99.90;;;;;;5071369;28;20036;-71
2023/01/24 10:44:57;;;;;;;17.92;11.60;;;3.90;99.90;;;;;;5071603;28;20048;-71
2023/01/24 10:47:38;;;;;;;15.75;11.93;;;3.90;99.90;;;;;;5071645;28;20127;-71
2023/01/24 10:50:06;;;;;;;17.63;12.60;;;3.90;99.90;;;;;;5071836;28;20359;-71
2023/01/24 10:52:33;;;;;;;22.73;12.65;;;4.00;99.90;;;;;;5072378;28;20103;-70
2023/01/24 10:55:01;;;;;;;21.00;11.98;;;4.00;99.90;;;;;;5071586;28;20087;-71
2023/01/24 10:57:39;;;;;;;15.48;12.70;;;3.90;99.90;;;;;;5071074;28;20083;-69
2023/01/24 11:00:33;;;;;;;20.00;14.55;;;3.90;99.90;;;;;;5053873;28;20052;-68
2023/01/24 11:03:04;;;;;;;18.65;13.25;;;3.90;99.90;;;;;;5071230;28;20469;-68
2023/01/24 11:05:48;;;;;;;18.17;13.23;;;3.90;99.90;;;;;;5071324;28;20040;-74
2023/01/24 11:08:26;;;;;;;16.38;12.68;;;3.80;99.90;;;;;;5071926;28;20407;-71
2023/01/24 11:10:58;;;;;;;17.45;13.20;;;3.90;99.90;;;;;;5055310;28;20049;-81
2023/01/24 11:13:24;;;;;;;17.77;13.77;;;3.90;99.90;;;;;;5075626;28;20036;-72
2023/01/24 11:15:53;;;;;;;18.65;13.52;;;3.90;99.90;;;;;;5075740;28;20414;-72
2023/01/24 11:18:20;;;;;;;19.30;15.23;;;3.90;99.90;;;;;;5076176;28;20049;-77
2023/01/24 11:35:08;;;;;;;20.90;15.00;;;4.50;99.90;;;;;;5130687;27;20348;-73
2023/01/24 11:38:00;;;;;;;18.77;14.48;;;4.30;99.90;;;;;;5131385;27;20047;-72
2023/01/24 11:40:37;;;;;;;20.70;15.05;;;4.30;99.90;;;;;;5083269;27;20055;-72
2023/01/24 11:43:20;;;;;;;21.20;16.27;;;4.20;99.90;;;;;;5134816;27;20046;-71
2023/01/24 11:46:10;;;;;;;21.30;15.77;;;4.20;99.90;;;;;;5118791;27;20083;-72
2023/01/24 11:48:56;;;;;;;17.92;15.13;;;4.20;99.90;;;;;;5140594;27;20131;-73
2023/01/24 11:51:53;;;;;;;20.95;16.08;;;4.20;99.90;;;;;;5132222;27;20910;-72
2023/01/24 11:54:34;;;;;;;20.33;14.85;;;4.20;99.90;;;;;;5103050;28;20400;-72
2023/01/24 11:57:27;;;;;;;17.95;14.38;;;4.20;99.90;;;;;;5133001;27;20101;-71
2023/01/24 12:00:20;;;;;;;18.88;14.88;;;4.20;99.90;;;;;;5122156;27;20059;-70
2023/01/24 12:03:16;;;;;;;18.77;14.60;;;4.30;99.90;;;;;;5125129;27;20065;-71
2023/01/24 12:05:55;;;;;;;16.60;13.77;;;4.30;99.90;;;;;;5113035;27;20289;-70
2023/01/24 12:08:43;;;;;;;15.73;12.93;;;4.30;99.90;;;;;;5140263;27;20043;-71
2023/01/24 12:11:31;;;;;;;21.20;14.18;;;4.30;99.90;;;;;;5124448;27;20086;-72
2023/01/24 12:14:22;;;;;;;18.70;14.77;;;4.30;99.90;;;;;;5113464;28;20071;-71
2023/01/24 12:17:39;;;;;;;17.23;14.38;;;4.20;99.90;;;;;;5108182;27;20077;-71
2023/01/24 12:41:13;;;;;;;22.75;16.33;;;4.70;99.90;;;;;;5108038;27;20388;-72
2023/01/24 12:43:44;;;;;;;21.95;15.25;;;4.50;99.90;;;;;;5108923;28;20043;-71
2023/01/24 12:46:28;;;;;;;18.92;14.45;;;4.40;99.90;;;;;;5106397;28;20075;-71
2023/01/24 12:49:10;;;;;;;;;;;4.30;99.90;;;;;;5117063;27;20050;-72
2023/01/24 12:52:06;;;;;;;20.58;15.88;;;4.30;99.90;;;;;;5105729;27;20384;-72
2023/01/24 12:54:55;;;;;;;17.40;13.88;;;4.30;99.90;;;;;;5115132;28;20704;-70
2023/01/24 12:57:34;;;;;;;24.15;16.30;;;4.30;99.90;;;;;;5098745;27;20035;-71
2023/01/24 13:00:00;;;;;;;20.88;15.38;;;4.30;99.90;;;;;;5110014;28;20732;-71
2023/01/24 13:02:56;;;;;;;22.95;15.95;;;4.30;99.90;;;;;;5100800;27;20044;-71
2023/01/24 13:05:38;;;;;;;18.73;14.63;;;4.30;99.90;;;;;;5097943;27;20043;-71
2023/01/24 13:08:27;;;;;;;22.15;16.58;;;4.20;99.90;;;;;;5103954;28;20120;-71
2023/01/24 13:11:10;;;;;;;29.13;16.20;;;4.20;99.90;;;;;;5105834;28;20082;-71
2023/01/24 13:13:41;;;;;;;20.13;14.30;;;4.10;99.90;;;;;;5110318;28;20100;-71
2023/01/24 13:16:41;;;;;;;21.50;14.80;;;4.10;99.90;;;;;;5108214;27;20580;-71
2023/01/24 13:19:32;;;;;;;19.95;14.90;;;4.10;99.90;;;;;;5105277;28;20778;-71
2023/01/24 13:22:16;;;;;;;22.75;14.20;;;4.10;99.90;;;;;;5109419;28;20069;-71
2023/01/24 13:25:00;;;;;;;22.35;13.73;;;4.10;99.90;;;;;;5109568;27;20048;-70
2023/01/24 13:27:42;;;;;;;26.23;15.73;;;4.10;99.90;;;;;;5106804;28;20051;-73
2023/01/24 13:30:30;;;;;;;19.45;14.10;;;4.10;99.90;;;;;;5102307;28;20067;-71
2023/01/24 13:33:00;;;;;;;19.73;14.10;;;4.10;99.90;;;;;;5102884;28;20289;-71
2023/01/24 13:35:27;;;;;;;18.23;14.38;;;4.00;99.90;;;;;;5106856;27;20050;-71
2023/01/24 13:37:59;;;;;;;20.50;16.02;;;3.90;99.90;;;;;;5115833;27;20100;-73
2023/01/24 13:40:30;;;;;;;19.85;15.40;;;3.90;99.90;;;;;;5103526;28;20108;-70
2023/01/24 13:42:57;;;;;;;20.65;14.23;;;3.90;99.90;;;;;;5097482;28;20058;-71
2023/01/24 13:45:23;;;;;;;16.80;12.50;;;3.80;99.90;;;;;;5090191;28;20058;-71
2023/01/24 13:47:50;;;;;;;21.90;15.23;;;3.80;99.90;;;;;;5098030;28;20043;-72
2023/01/24 13:50:20;;;;;;;17.90;14.10;;;3.80;99.90;;;;;;5094751;28;20043;-72
2023/01/24 13:52:54;;;;;;;21.20;13.90;;;3.90;99.90;;;;;;5100333;28;20095;-71
2023/01/24 13:55:22;;;;;;;22.35;14.38;;;3.90;99.90;;;;;;5094659;28;20054;-71
2023/01/24 13:58:03;;;;;;;18.13;14.32;;;3.90;99.90;;;;;;5095104;28;20122;-71
2023/01/24 14:00:29;;;;;;;17.50;14.82;;;3.70;99.90;;;;;;5097289;28;20055;-72
2023/01/24 14:03:19;;;;;;;17.42;13.80;;;3.90;99.90;;;;;;5091615;28;20442;-72
2023/01/24 14:05:57;;;;;;;16.65;13.45;;;3.90;99.90;;;;;;5093431;28;20318;-73
2023/01/24 14:08:25;;;;;;;19.80;13.20;;;4.00;99.90;;;;;;5092956;28;20443;-72
2023/01/24 14:10:55;;;;;;;22.52;15.13;;;3.90;99.90;;;;;;5091035;28;21467;-72
2023/01/24 14:13:42;;;;;;;21.83;13.77;;;3.90;99.90;;;;;;5089892;28;20047;-72
2023/01/24 14:16:32;;;;;;;21.48;14.75;;;3.90;99.90;;;;;;5097683;28;20056;-72